sensor_id;sensor_type;location;lat;lon;timestamp;temperature;humidity
38209;DHT22;24016;52.102;11.584;2024-03-02T00:01:09;4.60;99.90
38209;DHT22;24016;52.102;11.584;2024-03-02T00:03:36;4.60;99.90
38209;DHT22;24016;52.102;11.584;2024-03-02T00:06:02;4.60;99.90
38209;DHT22;24016;52.102;11.584;2024-03-02T00:08:29;4.60;99.90
38209;DHT22;24016;52.102;11.584;2024-03-02T00:10:58;4.60;99.90
38209;DHT22;24016;52.102;11.584;2024-03-02T00:13:24;4.60;99.90
38209;DHT22;24016;52.102;11.584;2024-03-02T00:15:53;4.50;99.90
38209;DHT22;24016;52.102;11.584;2024-03-02T00:18:30;4.50;99.90
38209;DHT22;24016;52.102;11.584;2024-03-02T00:20:57;4.50;99.90
38209;DHT22;24016;52.102;11.584;2024-03-02T00:23:23;4.50;99.90
38209;DHT22;24016;52.102;11.584;2024-03-02T00:25:50;4.40;99.90
38209;DHT22;24016;52.102;11.584;2024-03-02T00:30:57;4.40;99.90
38209;DHT22;24016;52.102;11.584;2024-03-02T00:33:24;4.40;99.90
38209;DHT22;24016;52.102;11.584;2024-03-02T00:35:51;4.30;99.90
38209;DHT22;24016;52.102;11.584;2024-03-02T00:38:17;4.40;99.90
38209;DHT22;24016;52.102;11.584;2024-03-02T00:40:43;4.40;99.90
38209;DHT22;24016;52.102;11.584;2024-03-02T00:43:42;4.40;99.90
38209;DHT22;24016;52.102;11.584;2024-03-02T00:46:13;4.50;99.90
38209;DHT22;24016;52.102;11.584;2024-03-02T00:48:50;4.50;99.90
38209;DHT22;24016;52.102;11.584;2024-03-02T00:51:15;4.50;99.90
38209;DHT22;24016;52.102;11.584;2024-03-02T00:53:41;4.50;99.90
38209;DHT22;24016;52.102;11.584;2024-03-02T00:56:10;4.40;99.90
38209;DHT22;24016;52.102;11.584;2024-03-02T00:58:37;4.50;99.90
38209;DHT22;24016;52.102;11.584;2024-03-02T01:01:02;4.40;99.90
38209;DHT22;24016;52.102;11.584;2024-03-02T01:03:28;4.30;99.90
38209;DHT22;24016;52.102;11.584;2024-03-02T01:05:53;4.20;99.90
38209;DHT22;24016;52.102;11.584;2024-03-02T01:08:19;4.10;99.90
38209;DHT22;24016;52.102;11.584;2024-03-02T01:10:45;4.10;99.90
38209;DHT22;24016;52.102;11.584;2024-03-02T01:13:10;4.10;99.90
38209;DHT22;24016;52.102;11.584;2024-03-02T01:15:36;4.10;99.90
38209;DHT22;24016;52.102;11.584;2024-03-02T01:18:01;4.20;99.90
38209;DHT22;24016;52.102;11.584;2024-03-02T01:20:27;4.30;99.90
38209;DHT22;24016;52.102;11.584;2024-03-02T01:22:52;4.40;99.90
38209;DHT22;24016;52.102;11.584;2024-03-02T01:25:18;4.40;99.90
38209;DHT22;24016;52.102;11.584;2024-03-02T01:27:44;4.40;99.90
38209;DHT22;24016;52.102;11.584;2024-03-02T01:30:10;4.50;99.90
38209;DHT22;24016;52.102;11.584;2024-03-02T01:32:38;4.50;99.90
38209;DHT22;24016;52.102;11.584;2024-03-02T01:35:04;4.50;99.90
38209;DHT22;24016;52.102;11.584;2024-03-02T01:37:30;4.50;99.90
38209;DHT22;24016;52.102;11.584;2024-03-02T01:39:55;4.50;99.90
38209;DHT22;24016;52.102;11.584;2024-03-02T01:42:21;4.50;99.90
38209;DHT22;24016;52.102;11.584;2024-03-02T01:44:47;4.50;99.90
38209;DHT22;24016;52.102;11.584;2024-03-02T01:47:13;4.50;99.90
38209;DHT22;24016;52.102;11.584;2024-03-02T01:49:39;4.40;99.90
38209;DHT22;24016;52.102;11.584;2024-03-02T01:52:06;4.50;99.90
38209;DHT22;24016;52.102;11.584;2024-03-02T01:54:32;4.40;99.90
38209;DHT22;24016;52.102;11.584;2024-03-02T01:56:58;4.40;99.90
38209;DHT22;24016;52.102;11.584;2024-03-02T01:59:24;4.40;99.90
38209;DHT22;24016;52.102;11.584;2024-03-02T02:01:50;4.40;99.90
38209;DHT22;24016;52.102;11.584;2024-03-02T02:04:15;4.40;99.90
38209;DHT22;24016;52.102;11.584;2024-03-02T02:06:42;4.50;99.90
38209;DHT22;24016;52.102;11.584;2024-03-02T02:09:09;4.50;99.90
38209;DHT22;24016;52.102;11.584;2024-03-02T02:11:34;4.50;99.90
38209;DHT22;24016;52.102;11.584;2024-03-02T02:14:00;4.50;99.90
38209;DHT22;24016;52.102;11.584;2024-03-02T02:16:25;4.50;99.90
38209;DHT22;24016;52.102;11.584;2024-03-02T02:18:51;4.50;99.90
38209;DHT22;24016;52.102;11.584;2024-03-02T02:21:16;4.60;99.90
38209;DHT22;24016;52.102;11.584;2024-03-02T02:23:42;4.50;99.90
38209;DHT22;24016;52.102;11.584;2024-03-02T02:26:12;4.60;99.90
38209;DHT22;24016;52.102;11.584;2024-03-02T02:28:37;4.60;99.90
38209;DHT22;24016;52.102;11.584;2024-03-02T02:33:39;4.60;99.90
38209;DHT22;24016;52.102;11.584;2024-03-02T02:36:05;4.60;99.90
38209;DHT22;24016;52.102;11.584;2024-03-02T02:38:41;4.60;99.90
38209;DHT22;24016;52.102;11.584;2024-03-02T02:41:09;4.60;99.90
38209;DHT22;24016;52.102;11.584;2024-03-02T02:43:35;4.60;99.90
38209;DHT22;24016;52.102;11.584;2024-03-02T02:46:02;4.60;99.90
38209;DHT22;24016;52.102;11.584;2024-03-02T02:48:31;4.60;99.90
38209;DHT22;24016;52.102;11.584;2024-03-02T02:50:58;4.70;99.90
38209;DHT22;24016;52.102;11.584;2024-03-02T02:53:25;4.70;99.90
38209;DHT22;24016;52.102;11.584;2024-03-02T02:55:51;4.70;99.90
38209;DHT22;24016;52.102;11.584;2024-03-02T02:58:17;4.70;99.90
38209;DHT22;24016;52.102;11.584;2024-03-02T03:00:44;4.70;99.90
38209;DHT22;24016;52.102;11.584;2024-03-02T03:03:10;4.70;99.90
38209;DHT22;24016;52.102;11.584;2024-03-02T03:05:37;4.80;99.90
38209;DHT22;24016;52.102;11.584;2024-03-02T03:08:03;4.80;99.90
38209;DHT22;24016;52.102;11.584;2024-03-02T03:10:30;4.80;99.90
38209;DHT22;24016;52.102;11.584;2024-03-02T03:12:58;4.80;99.90
38209;DHT22;24016;52.102;11.584;2024-03-02T03:15:25;4.80;99.90
38209;DHT22;24016;52.102;11.584;2024-03-02T03:17:51;4.80;99.90
38209;DHT22;24016;52.102;11.584;2024-03-02T03:20:17;4.70;99.90
38209;DHT22;24016;52.102;11.584;2024-03-02T03:22:48;4.80;99.90
38209;DHT22;24016;52.102;11.584;2024-03-02T03:25:13;4.80;99.90
38209;DHT22;24016;52.102;11.584;2024-03-02T03:27:40;4.70;99.90
38209;DHT22;24016;52.102;11.584;2024-03-02T03:30:07;4.80;99.90
38209;DHT22;24016;52.102;11.584;2024-03-02T03:32:34;4.80;99.90
38209;DHT22;24016;52.102;11.584;2024-03-02T03:35:00;4.70;99.90
38209;DHT22;24016;52.102;11.584;2024-03-02T03:37:27;4.80;99.90
38209;DHT22;24016;52.102;11.584;2024-03-02T03:40:01;4.70;99.90
38209;DHT22;24016;52.102;11.584;2024-03-02T03:42:27;4.70;99.90
38209;DHT22;24016;52.102;11.584;2024-03-02T03:44:52;4.70;99.90
38209;DHT22;24016;52.102;11.584;2024-03-02T03:47:18;4.70;99.90
38209;DHT22;24016;52.102;11.584;2024-03-02T03:49:43;4.70;99.90
38209;DHT22;24016;52.102;11.584;2024-03-02T03:52:09;4.70;99.90
38209;DHT22;24016;52.102;11.584;2024-03-02T03:54:35;4.70;99.90
38209;DHT22;24016;52.102;11.584;2024-03-02T03:57:02;4.70;99.90
38209;DHT22;24016;52.102;11.584;2024-03-02T03:59:28;4.70;99.90
38209;DHT22;24016;52.102;11.584;2024-03-02T04:01:53;4.60;99.90
38209;DHT22;24016;52.102;11.584;2024-03-02T04:04:19;4.70;99.90
38209;DHT22;24016;52.102;11.584;2024-03-02T04:06:44;4.60;99.90
38209;DHT22;24016;52.102;11.584;2024-03-02T04:09:10;4.60;99.90
38209;DHT22;24016;52.102;11.584;2024-03-02T04:11:36;4.60;99.90
38209;DHT22;24016;52.102;11.584;2024-03-02T04:14:01;4.60;99.90
38209;DHT22;24016;52.102;11.584;2024-03-02T04:16:27;4.50;99.90
38209;DHT22;24016;52.102;11.584;2024-03-02T04:18:54;4.50;99.90
38209;DHT22;24016;52.102;11.584;2024-03-02T04:21:19;4.50;99.90
38209;DHT22;24016;52.102;11.584;2024-03-02T04:23:45;4.50;99.90
38209;DHT22;24016;52.102;11.584;2024-03-02T04:26:10;4.50;99.90
38209;DHT22;24016;52.102;11.584;2024-03-02T04:28:36;4.40;99.90
38209;DHT22;24016;52.102;11.584;2024-03-02T04:31:01;4.40;99.90
38209;DHT22;24016;52.102;11.584;2024-03-02T04:33:27;4.40;99.90
38209;DHT22;24016;52.102;11.584;2024-03-02T04:35:52;4.40;99.90
38209;DHT22;24016;52.102;11.584;2024-03-02T04:38:18;4.40;99.90
38209;DHT22;24016;52.102;11.584;2024-03-02T04:40:43;4.40;99.90
38209;DHT22;24016;52.102;11.584;2024-03-02T04:43:09;4.30;99.90
38209;DHT22;24016;52.102;11.584;2024-03-02T04:45:38;4.40;99.90
38209;DHT22;24016;52.102;11.584;2024-03-02T04:48:03;4.40;99.90
38209;DHT22;24016;52.102;11.584;2024-03-02T04:50:29;4.40;99.90
38209;DHT22;24016;52.102;11.584;2024-03-02T04:52:55;4.30;99.90
38209;DHT22;24016;52.102;11.584;2024-03-02T04:55:20;4.40;99.90
38209;DHT22;24016;52.102;11.584;2024-03-02T04:58:09;4.40;99.90
38209;DHT22;24016;52.102;11.584;2024-03-02T05:00:35;4.40;99.90
38209;DHT22;24016;52.102;11.584;2024-03-02T05:03:00;4.40;99.90
38209;DHT22;24016;52.102;11.584;2024-03-02T05:05:26;4.40;99.90
38209;DHT22;24016;52.102;11.584;2024-03-02T05:07:52;4.50;99.90
38209;DHT22;24016;52.102;11.584;2024-03-02T05:10:17;4.40;99.90
38209;DHT22;24016;52.102;11.584;2024-03-02T05:12:43;4.40;99.90
38209;DHT22;24016;52.102;11.584;2024-03-02T05:15:09;4.50;99.90
38209;DHT22;24016;52.102;11.584;2024-03-02T05:17:36;4.50;99.90
38209;DHT22;24016;52.102;11.584;2024-03-02T05:20:02;4.50;99.90
38209;DHT22;24016;52.102;11.584;2024-03-02T05:22:28;4.50;99.90
38209;DHT22;24016;52.102;11.584;2024-03-02T05:24:54;4.60;99.90
38209;DHT22;24016;52.102;11.584;2024-03-02T05:27:19;4.60;99.90
38209;DHT22;24016;52.102;11.584;2024-03-02T05:29:45;4.60;99.90
38209;DHT22;24016;52.102;11.584;2024-03-02T05:32:10;4.60;99.90
38209;DHT22;24016;52.102;11.584;2024-03-02T05:34:36;4.60;99.90
38209;DHT22;24016;52.102;11.584;2024-03-02T05:37:02;4.60;99.90
38209;DHT22;24016;52.102;11.584;2024-03-02T05:39:27;4.60;99.90
38209;DHT22;24016;52.102;11.584;2024-03-02T05:41:53;4.60;99.90
38209;DHT22;24016;52.102;11.584;2024-03-02T05:44:18;4.70;99.90
38209;DHT22;24016;52.102;11.584;2024-03-02T05:46:45;4.70;99.90
38209;DHT22;24016;52.102;11.584;2024-03-02T05:49:10;4.70;99.90
38209;DHT22;24016;52.102;11.584;2024-03-02T05:51:36;4.70;99.90
38209;DHT22;24016;52.102;11.584;2024-03-02T05:54:02;4.70;99.90
38209;DHT22;24016;52.102;11.584;2024-03-02T05:56:28;4.70;99.90
38209;DHT22;24016;52.102;11.584;2024-03-02T05:58:54;4.70;99.90
38209;DHT22;24016;52.102;11.584;2024-03-02T06:01:43;4.70;99.90
38209;DHT22;24016;52.102;11.584;2024-03-02T06:04:09;4.70;99.90
38209;DHT22;24016;52.102;11.584;2024-03-02T06:06:36;4.70;99.90
38209;DHT22;24016;52.102;11.584;2024-03-02T06:09:02;4.70;99.90
38209;DHT22;24016;52.102;11.584;2024-03-02T06:11:30;4.70;99.90
38209;DHT22;24016;52.102;11.584;2024-03-02T06:13:56;4.70;99.90
38209;DHT22;24016;52.102;11.584;2024-03-02T06:16:21;4.70;99.90
38209;DHT22;24016;52.102;11.584;2024-03-02T06:18:47;4.80;99.90
38209;DHT22;24016;52.102;11.584;2024-03-02T06:21:13;4.70;99.90
38209;DHT22;24016;52.102;11.584;2024-03-02T06:23:38;4.70;99.90
38209;DHT22;24016;52.102;11.584;2024-03-02T06:26:03;4.70;99.90
38209;DHT22;24016;52.102;11.584;2024-03-02T06:28:29;4.70;99.90
38209;DHT22;24016;52.102;11.584;2024-03-02T06:30:55;4.70;99.90
38209;DHT22;24016;52.102;11.584;2024-03-02T06:33:20;4.70;99.90
38209;DHT22;24016;52.102;11.584;2024-03-02T06:35:46;4.70;99.90
38209;DHT22;24016;52.102;11.584;2024-03-02T06:38:11;4.70;99.90
38209;DHT22;24016;52.102;11.584;2024-03-02T06:40:37;4.70;99.90
38209;DHT22;24016;52.102;11.584;2024-03-02T06:43:04;4.70;99.90
38209;DHT22;24016;52.102;11.584;2024-03-02T06:45:30;4.70;99.90
38209;DHT22;24016;52.102;11.584;2024-03-02T06:47:56;4.70;99.90
38209;DHT22;24016;52.102;11.584;2024-03-02T06:50:21;4.70;99.90
38209;DHT22;24016;52.102;11.584;2024-03-02T06:52:47;4.80;99.90
38209;DHT22;24016;52.102;11.584;2024-03-02T06:55:12;4.80;99.90
38209;DHT22;24016;52.102;11.584;2024-03-02T06:57:38;4.80;99.90
38209;DHT22;24016;52.102;11.584;2024-03-02T07:00:04;4.80;99.90
38209;DHT22;24016;52.102;11.584;2024-03-02T07:02:30;4.80;99.90
38209;DHT22;24016;52.102;11.584;2024-03-02T07:04:56;4.90;99.90
38209;DHT22;24016;52.102;11.584;2024-03-02T07:07:21;5.00;99.90
38209;DHT22;24016;52.102;11.584;2024-03-02T07:09:53;5.00;99.90
38209;DHT22;24016;52.102;11.584;2024-03-02T07:12:18;5.00;99.90
38209;DHT22;24016;52.102;11.584;2024-03-02T07:14:44;5.10;99.90
38209;DHT22;24016;52.102;11.584;2024-03-02T07:17:28;5.30;99.90
38209;DHT22;24016;52.102;11.584;2024-03-02T07:19:53;5.40;99.90
38209;DHT22;24016;52.102;11.584;2024-03-02T07:22:19;5.40;99.90
38209;DHT22;24016;52.102;11.584;2024-03-02T07:24:44;5.50;99.90
38209;DHT22;24016;52.102;11.584;2024-03-02T07:27:13;5.50;99.90
38209;DHT22;24016;52.102;11.584;2024-03-02T07:29:40;5.50;99.90
38209;DHT22;24016;52.102;11.584;2024-03-02T07:32:06;5.60;99.90
38209;DHT22;24016;52.102;11.584;2024-03-02T07:34:32;5.60;99.90
38209;DHT22;24016;52.102;11.584;2024-03-02T07:36:58;5.70;99.90
38209;DHT22;24016;52.102;11.584;2024-03-02T07:39:24;5.80;99.90
38209;DHT22;24016;52.102;11.584;2024-03-02T07:41:50;5.90;99.90
38209;DHT22;24016;52.102;11.584;2024-03-02T07:44:16;5.90;99.90
38209;DHT22;24016;52.102;11.584;2024-03-02T07:46:42;5.90;99.90
38209;DHT22;24016;52.102;11.584;2024-03-02T07:49:08;5.90;99.90
38209;DHT22;24016;52.102;11.584;2024-03-02T07:51:34;5.90;99.90
38209;DHT22;24016;52.102;11.584;2024-03-02T07:53:59;6.00;99.90
38209;DHT22;24016;52.102;11.584;2024-03-02T07:56:25;6.00;99.90
38209;DHT22;24016;52.102;11.584;2024-03-02T07:58:51;6.10;99.90
38209;DHT22;24016;52.102;11.584;2024-03-02T08:01:16;6.20;99.90
38209;DHT22;24016;52.102;11.584;2024-03-02T08:03:43;6.20;99.90
38209;DHT22;24016;52.102;11.584;2024-03-02T08:06:16;6.30;99.90
38209;DHT22;24016;52.102;11.584;2024-03-02T08:08:42;6.40;99.90
38209;DHT22;24016;52.102;11.584;2024-03-02T08:11:07;6.40;99.90
38209;DHT22;24016;52.102;11.584;2024-03-02T08:13:33;6.50;99.90
38209;DHT22;24016;52.102;11.584;2024-03-02T08:15:58;6.70;99.90
38209;DHT22;24016;52.102;11.584;2024-03-02T08:18:24;6.80;99.90
38209;DHT22;24016;52.102;11.584;2024-03-02T08:20:50;6.80;99.90
38209;DHT22;24016;52.102;11.584;2024-03-02T08:23:15;6.90;99.90
38209;DHT22;24016;52.102;11.584;2024-03-02T08:25:41;6.90;99.90
38209;DHT22;24016;52.102;11.584;2024-03-02T08:28:07;7.00;99.90
38209;DHT22;24016;52.102;11.584;2024-03-02T08:30:33;7.10;99.90
38209;DHT22;24016;52.102;11.584;2024-03-02T08:32:58;7.20;99.90
38209;DHT22;24016;52.102;11.584;2024-03-02T08:35:24;7.20;99.90
38209;DHT22;24016;52.102;11.584;2024-03-02T08:37:49;7.30;99.90
38209;DHT22;24016;52.102;11.584;2024-03-02T08:40:15;7.40;99.90
38209;DHT22;24016;52.102;11.584;2024-03-02T08:42:41;7.50;99.90
38209;DHT22;24016;52.102;11.584;2024-03-02T08:45:07;7.60;99.90
38209;DHT22;24016;52.102;11.584;2024-03-02T08:47:33;7.70;99.90
38209;DHT22;24016;52.102;11.584;2024-03-02T08:49:59;7.80;99.90
38209;DHT22;24016;52.102;11.584;2024-03-02T08:52:26;7.80;99.90
38209;DHT22;24016;52.102;11.584;2024-03-02T08:54:51;7.90;99.90
38209;DHT22;24016;52.102;11.584;2024-03-02T08:57:17;8.00;99.90
38209;DHT22;24016;52.102;11.584;2024-03-02T08:59:42;8.20;99.90
38209;DHT22;24016;52.102;11.584;2024-03-02T09:02:09;8.20;99.90
38209;DHT22;24016;52.102;11.584;2024-03-02T09:04:35;8.30;99.90
38209;DHT22;24016;52.102;11.584;2024-03-02T09:07:00;8.30;99.90
38209;DHT22;24016;52.102;11.584;2024-03-02T09:09:26;8.40;99.90
38209;DHT22;24016;52.102;11.584;2024-03-02T09:11:51;8.30;99.90
38209;DHT22;24016;52.102;11.584;2024-03-02T09:14:17;8.50;99.90
38209;DHT22;24016;52.102;11.584;2024-03-02T09:16:42;8.70;99.90
38209;DHT22;24016;52.102;11.584;2024-03-02T09:19:08;9.00;99.90
38209;DHT22;24016;52.102;11.584;2024-03-02T09:21:34;9.20;99.90
38209;DHT22;24016;52.102;11.584;2024-03-02T09:24:00;9.30;99.90
38209;DHT22;24016;52.102;11.584;2024-03-02T09:26:27;9.20;99.90
38209;DHT22;24016;52.102;11.584;2024-03-02T09:28:53;9.20;99.90
38209;DHT22;24016;52.102;11.584;2024-03-02T09:31:19;9.30;99.90
38209;DHT22;24016;52.102;11.584;2024-03-02T09:33:45;9.60;99.90
38209;DHT22;24016;52.102;11.584;2024-03-02T09:36:20;9.70;99.90
38209;DHT22;24016;52.102;11.584;2024-03-02T09:38:46;9.80;99.90
38209;DHT22;24016;52.102;11.584;2024-03-02T09:41:12;10.00;99.90
38209;DHT22;24016;52.102;11.584;2024-03-02T09:43:38;10.30;99.90
38209;DHT22;24016;52.102;11.584;2024-03-02T09:46:04;10.50;99.90
38209;DHT22;24016;52.102;11.584;2024-03-02T09:48:30;10.60;99.90
38209;DHT22;24016;52.102;11.584;2024-03-02T09:50:56;10.90;99.90
38209;DHT22;24016;52.102;11.584;2024-03-02T09:53:22;11.20;99.90
38209;DHT22;24016;52.102;11.584;2024-03-02T09:55:48;11.20;99.90
38209;DHT22;24016;52.102;11.584;2024-03-02T09:58:14;11.60;99.90
38209;DHT22;24016;52.102;11.584;2024-03-02T10:00:39;11.30;99.90
38209;DHT22;24016;52.102;11.584;2024-03-02T10:03:05;11.20;99.90
38209;DHT22;24016;52.102;11.584;2024-03-02T10:05:31;11.20;99.90
38209;DHT22;24016;52.102;11.584;2024-03-02T10:08:03;11.50;99.90
38209;DHT22;24016;52.102;11.584;2024-03-02T10:10:39;11.70;99.90
38209;DHT22;24016;52.102;11.584;2024-03-02T10:13:12;11.90;99.90
38209;DHT22;24016;52.102;11.584;2024-03-02T10:15:39;11.90;99.90
38209;DHT22;24016;52.102;11.584;2024-03-02T10:18:08;12.20;99.90
38209;DHT22;24016;52.102;11.584;2024-03-02T10:20:34;12.00;99.90
38209;DHT22;24016;52.102;11.584;2024-03-02T10:23:20;12.30;99.90
38209;DHT22;24016;52.102;11.584;2024-03-02T10:25:46;12.40;99.90
38209;DHT22;24016;52.102;11.584;2024-03-02T10:28:12;12.30;99.90
38209;DHT22;24016;52.102;11.584;2024-03-02T10:30:37;12.40;99.90
38209;DHT22;24016;52.102;11.584;2024-03-02T10:33:05;12.50;99.90
38209;DHT22;24016;52.102;11.584;2024-03-02T10:35:31;12.60;99.90
38209;DHT22;24016;52.102;11.584;2024-03-02T10:37:59;12.40;99.90
38209;DHT22;24016;52.102;11.584;2024-03-02T10:40:26;13.00;99.90
38209;DHT22;24016;52.102;11.584;2024-03-02T10:42:52;13.40;99.90
38209;DHT22;24016;52.102;11.584;2024-03-02T10:45:20;13.80;99.90
38209;DHT22;24016;52.102;11.584;2024-03-02T10:47:48;13.40;99.90
38209;DHT22;24016;52.102;11.584;2024-03-02T10:50:13;13.90;99.90
38209;DHT22;24016;52.102;11.584;2024-03-02T10:52:39;13.90;99.90
38209;DHT22;24016;52.102;11.584;2024-03-02T10:55:06;13.80;99.90
38209;DHT22;24016;52.102;11.584;2024-03-02T10:57:50;13.50;99.90
38209;DHT22;24016;52.102;11.584;2024-03-02T11:00:16;13.10;99.90
38209;DHT22;24016;52.102;11.584;2024-03-02T11:02:51;13.60;99.90
38209;DHT22;24016;52.102;11.584;2024-03-02T11:05:28;14.20;99.90
38209;DHT22;24016;52.102;11.584;2024-03-02T11:08:17;15.10;99.90
38209;DHT22;24016;52.102;11.584;2024-03-02T11:10:52;14.40;99.90
38209;DHT22;24016;52.102;11.584;2024-03-02T11:13:27;14.60;99.90
38209;DHT22;24016;52.102;11.584;2024-03-02T11:15:59;14.70;99.90
38209;DHT22;24016;52.102;11.584;2024-03-02T11:18:25;13.90;99.90
38209;DHT22;24016;52.102;11.584;2024-03-02T11:20:51;13.10;99.90
38209;DHT22;24016;52.102;11.584;2024-03-02T11:23:18;13.10;99.90
38209;DHT22;24016;52.102;11.584;2024-03-02T11:26:17;13.10;99.90
38209;DHT22;24016;52.102;11.584;2024-03-02T11:28:43;13.40;99.90
38209;DHT22;24016;52.102;11.584;2024-03-02T11:31:09;13.70;99.90
38209;DHT22;24016;52.102;11.584;2024-03-02T11:33:34;14.70;99.90
38209;DHT22;24016;52.102;11.584;2024-03-02T11:36:00;14.80;99.90
38209;DHT22;24016;52.102;11.584;2024-03-02T11:38:28;14.30;99.90
38209;DHT22;24016;52.102;11.584;2024-03-02T11:40:54;14.00;99.90
38209;DHT22;24016;52.102;11.584;2024-03-02T11:43:20;14.30;99.90
38209;DHT22;24016;52.102;11.584;2024-03-02T11:45:45;14.80;99.90
38209;DHT22;24016;52.102;11.584;2024-03-02T11:48:14;15.20;99.90
38209;DHT22;24016;52.102;11.584;2024-03-02T11:50:47;15.60;99.90
38209;DHT22;24016;52.102;11.584;2024-03-02T11:53:15;15.90;99.90
38209;DHT22;24016;52.102;11.584;2024-03-02T11:55:40;15.30;99.90
38209;DHT22;24016;52.102;11.584;2024-03-02T11:58:07;15.30;99.90
38209;DHT22;24016;52.102;11.584;2024-03-02T12:00:32;16.00;99.90
38209;DHT22;24016;52.102;11.584;2024-03-02T12:05:30;15.80;99.90
38209;DHT22;24016;52.102;11.584;2024-03-02T12:08:00;15.80;99.90
38209;DHT22;24016;52.102;11.584;2024-03-02T12:10:26;15.10;99.90
38209;DHT22;24016;52.102;11.584;2024-03-02T12:13:03;14.90;99.90
38209;DHT22;24016;52.102;11.584;2024-03-02T12:15:31;15.00;99.90
38209;DHT22;24016;52.102;11.584;2024-03-02T12:17:57;15.10;99.90
38209;DHT22;24016;52.102;11.584;2024-03-02T12:20:24;14.60;99.90
38209;DHT22;24016;52.102;11.584;2024-03-02T12:22:51;14.10;99.90
38209;DHT22;24016;52.102;11.584;2024-03-02T12:25:22;14.20;99.90
38209;DHT22;24016;52.102;11.584;2024-03-02T12:27:50;14.10;99.90
38209;DHT22;24016;52.102;11.584;2024-03-02T12:30:17;14.40;99.90
38209;DHT22;24016;52.102;11.584;2024-03-02T12:32:43;14.80;99.90
38209;DHT22;24016;52.102;11.584;2024-03-02T12:35:10;14.50;99.90
38209;DHT22;24016;52.102;11.584;2024-03-02T12:37:47;15.20;99.90
38209;DHT22;24016;52.102;11.584;2024-03-02T12:40:15;15.70;99.90
38209;DHT22;24016;52.102;11.584;2024-03-02T12:42:43;15.50;99.90
38209;DHT22;24016;52.102;11.584;2024-03-02T12:45:09;14.80;99.90
38209;DHT22;24016;52.102;11.584;2024-03-02T12:47:36;15.50;99.90
38209;DHT22;24016;52.102;11.584;2024-03-02T12:50:03;16.30;99.90
38209;DHT22;24016;52.102;11.584;2024-03-02T12:52:30;15.60;99.90
38209;DHT22;24016;52.102;11.584;2024-03-02T12:54:56;15.30;99.90
38209;DHT22;24016;52.102;11.584;2024-03-02T12:57:28;14.60;99.90
38209;DHT22;24016;52.102;11.584;2024-03-02T13:00:00;13.90;99.90
38209;DHT22;24016;52.102;11.584;2024-03-02T13:02:30;14.10;99.90
38209;DHT22;24016;52.102;11.584;2024-03-02T13:04:57;14.20;99.90
38209;DHT22;24016;52.102;11.584;2024-03-02T13:07:24;14.30;99.90
38209;DHT22;24016;52.102;11.584;2024-03-02T13:09:50;13.90;99.90
38209;DHT22;24016;52.102;11.584;2024-03-02T13:12:16;14.10;99.90
38209;DHT22;24016;52.102;11.584;2024-03-02T13:14:42;14.30;99.90
38209;DHT22;24016;52.102;11.584;2024-03-02T13:17:11;14.00;99.90
38209;DHT22;24016;52.102;11.584;2024-03-02T13:19:55;13.90;99.90
38209;DHT22;24016;52.102;11.584;2024-03-02T13:22:21;14.10;99.90
38209;DHT22;24016;52.102;11.584;2024-03-02T13:24:48;13.90;99.90
38209;DHT22;24016;52.102;11.584;2024-03-02T13:27:13;13.70;99.90
38209;DHT22;24016;52.102;11.584;2024-03-02T13:29:39;13.50;99.90
38209;DHT22;24016;52.102;11.584;2024-03-02T13:32:05;13.30;99.90
38209;DHT22;24016;52.102;11.584;2024-03-02T13:34:30;13.50;99.90
38209;DHT22;24016;52.102;11.584;2024-03-02T13:36:56;13.30;99.90
38209;DHT22;24016;52.102;11.584;2024-03-02T13:39:21;13.10;99.90
38209;DHT22;24016;52.102;11.584;2024-03-02T13:41:47;13.00;99.90
38209;DHT22;24016;52.102;11.584;2024-03-02T13:44:19;12.90;99.90
38209;DHT22;24016;52.102;11.584;2024-03-02T13:46:44;12.90;99.90
38209;DHT22;24016;52.102;11.584;2024-03-02T13:49:11;13.10;99.90
38209;DHT22;24016;52.102;11.584;2024-03-02T13:51:37;13.00;99.90
38209;DHT22;24016;52.102;11.584;2024-03-02T13:54:03;13.00;99.90
38209;DHT22;24016;52.102;11.584;2024-03-02T13:56:29;12.60;99.90
38209;DHT22;24016;52.102;11.584;2024-03-02T13:58:55;12.60;99.90
38209;DHT22;24016;52.102;11.584;2024-03-02T14:01:20;12.60;99.90
38209;DHT22;24016;52.102;11.584;2024-03-02T14:03:49;12.70;99.90
38209;DHT22;24016;52.102;11.584;2024-03-02T14:06:15;12.70;99.90
38209;DHT22;24016;52.102;11.584;2024-03-02T14:08:40;12.60;99.90
38209;DHT22;24016;52.102;11.584;2024-03-02T14:11:10;12.50;99.90
38209;DHT22;24016;52.102;11.584;2024-03-02T14:13:40;12.50;99.90
38209;DHT22;24016;52.102;11.584;2024-03-02T14:16:06;12.70;99.90
38209;DHT22;24016;52.102;11.584;2024-03-02T14:18:32;12.70;99.90
38209;DHT22;24016;52.102;11.584;2024-03-02T14:20:58;12.70;99.90
38209;DHT22;24016;52.102;11.584;2024-03-02T14:23:23;12.70;99.90
38209;DHT22;24016;52.102;11.584;2024-03-02T14:25:51;12.60;99.90
38209;DHT22;24016;52.102;11.584;2024-03-02T14:28:16;12.60;99.90
38209;DHT22;24016;52.102;11.584;2024-03-02T14:30:42;12.50;99.90
38209;DHT22;24016;52.102;11.584;2024-03-02T14:33:07;12.60;99.90
38209;DHT22;24016;52.102;11.584;2024-03-02T14:35:33;12.60;99.90
38209;DHT22;24016;52.102;11.584;2024-03-02T14:37:59;12.60;99.90
38209;DHT22;24016;52.102;11.584;2024-03-02T14:40:24;12.50;99.90
38209;DHT22;24016;52.102;11.584;2024-03-02T14:42:52;12.50;99.90
38209;DHT22;24016;52.102;11.584;2024-03-02T14:45:18;12.50;99.90
38209;DHT22;24016;52.102;11.584;2024-03-02T14:47:44;12.50;99.90
38209;DHT22;24016;52.102;11.584;2024-03-02T14:50:10;12.50;99.90
38209;DHT22;24016;52.102;11.584;2024-03-02T14:52:36;12.60;99.90
38209;DHT22;24016;52.102;11.584;2024-03-02T14:55:02;12.50;99.90
38209;DHT22;24016;52.102;11.584;2024-03-02T14:57:32;12.40;99.90
38209;DHT22;24016;52.102;11.584;2024-03-02T14:59:58;12.40;99.90
38209;DHT22;24016;52.102;11.584;2024-03-02T15:02:23;12.40;99.90
38209;DHT22;24016;52.102;11.584;2024-03-02T15:04:49;12.40;99.90
38209;DHT22;24016;52.102;11.584;2024-03-02T15:07:15;12.40;99.90
38209;DHT22;24016;52.102;11.584;2024-03-02T15:09:41;12.40;99.90
38209;DHT22;24016;52.102;11.584;2024-03-02T15:12:07;12.40;99.90
38209;DHT22;24016;52.102;11.584;2024-03-02T15:14:36;12.40;99.90
38209;DHT22;24016;52.102;11.584;2024-03-02T15:17:03;12.40;99.90
38209;DHT22;24016;52.102;11.584;2024-03-02T15:19:29;12.30;99.90
38209;DHT22;24016;52.102;11.584;2024-03-02T15:21:55;12.30;99.90
38209;DHT22;24016;52.102;11.584;2024-03-02T15:24:20;12.30;99.90
38209;DHT22;24016;52.102;11.584;2024-03-02T15:26:46;12.20;99.90
38209;DHT22;24016;52.102;11.584;2024-03-02T15:29:11;12.20;99.90
38209;DHT22;24016;52.102;11.584;2024-03-02T15:31:37;12.10;99.90